Time;durP1;ratioP1;P1;durP2;ratioP2;P2;SDS_P1;SDS_P2;PMS_P1;PMS_P2;Temp;Humidity;BMP_temperature;BMP_pressure;BME280_temperature;BME280_humidity;BME280_pressure;Samples;Min_cycle;Max_cycle;Signal;HPM_P1;HPM_P2
2023/03/22 00:02:20;;;;;;;;;;;10.90;99.90;;;;;;5016537;28;19929;-75
2023/03/22 00:04:47;;;;;;;;;;;10.90;99.90;;;;;;5021583;28;19936;-76
2023/03/22 00:07:14;;;;;;;;;;;10.90;99.90;;;;;;5016784;28;19931;-76
2023/03/22 00:09:41;;;;;;;;;;;10.90;99.90;;;;;;5021667;28;19925;-75
2023/03/22 00:12:07;;;;;;;;;;;10.80;99.90;;;;;;5025272;28;19925;-75
2023/03/22 00:14:36;;;;;;;;;;;10.80;99.90;;;;;;5017874;28;20344;-75
2023/03/22 00:17:06;;;;;;;;;;;10.80;99.90;;;;;;5016569;28;20478;-76
2023/03/22 00:19:34;;;;;;;;;;;10.80;99.90;;;;;;5023423;28;19968;-76
2023/03/22 00:22:05;;;;;;;;;;;10.80;99.90;;;;;;5015048;28;20393;-75
2023/03/22 00:24:31;;;;;;;;;;;10.80;99.90;;;;;;5021446;28;20027;-76
2023/03/22 00:26:59;;;;;;;;;;;10.80;99.90;;;;;;5019016;28;19967;-75
2023/03/22 00:29:25;;;;;;;;;;;10.80;99.90;;;;;;5035513;28;19964;-76
2023/03/22 00:31:54;;;;;;;;;;;10.80;99.90;;;;;;5017268;28;20378;-76
2023/03/22 00:34:21;;;;;;;;;;;10.80;99.90;;;;;;5022290;28;20350;-75
2023/03/22 00:36:52;;;;;;;;;;;10.80;99.90;;;;;;5019907;28;20018;-75
2023/03/22 00:39:19;;;;;;;;;;;10.80;99.90;;;;;;5018184;28;19933;-76
2023/03/22 00:41:48;;;;;;;;;;;10.80;99.90;;;;;;5035100;28;19929;-76
2023/03/22 00:44:17;;;;;;;;;;;10.70;99.90;;;;;;5019408;28;19925;-76
2023/03/22 00:46:45;;;;;;;;;;;10.80;99.90;;;;;;5019781;28;20463;-75
2023/03/22 00:49:12;;;;;;;;;;;10.70;99.90;;;;;;5023457;28;19925;-76
2023/03/22 00:51:38;;;;;;;;;;;10.70;99.90;;;;;;5021450;28;20145;-75
2023/03/22 00:54:07;;;;;;;;;;;10.70;99.90;;;;;;5017798;28;19932;-76
2023/03/22 00:56:37;;;;;;;;;;;10.70;99.90;;;;;;5022249;28;20031;-75
2023/03/22 00:59:14;;;;;;;;;;;10.70;99.90;;;;;;5020495;28;19925;-76
2023/03/22 01:01:45;;;;;;;;;;;10.70;99.90;;;;;;5019438;28;19933;-76
2023/03/22 01:04:14;;;;;;;;;;;10.70;99.90;;;;;;5021505;28;19925;-75
2023/03/22 01:06:43;;;;;;;;;;;10.70;99.90;;;;;;5021464;28;19948;-75
2023/03/22 01:09:13;;;;;;;;;;;10.70;99.90;;;;;;5017678;28;19925;-76
2023/03/22 01:11:46;;;;;;;;;;;10.60;99.90;;;;;;5037913;28;20342;-75
2023/03/22 01:14:14;;;;;;;;;;;10.60;99.90;;;;;;5014095;28;20161;-76
2023/03/22 01:16:41;;;;;;;;;;;10.60;99.90;;;;;;5019156;28;19933;-77
2023/03/22 01:19:10;;;;;;;;;;;10.60;99.90;;;;;;5027847;28;19929;-77
2023/03/22 01:21:37;;;;;;;;;;;10.60;99.90;;;;;;5034777;28;20430;-76
2023/03/22 01:24:04;;;;;;;;;;;10.60;99.90;;;;;;5028990;28;19975;-75
2023/03/22 01:26:32;;;;;;;;;;;10.60;99.90;;;;;;5021695;28;19979;-75
2023/03/22 01:29:01;;;;;;;;;;;10.60;99.90;;;;;;5012617;28;19925;-75
2023/03/22 01:31:27;;;;;;;;;;;10.50;99.90;;;;;;5021853;28;20032;-75
2023/03/22 01:33:54;;;;;;;;;;;10.50;99.90;;;;;;5027646;28;20012;-76
2023/03/22 01:36:22;;;;;;;;;;;10.50;99.90;;;;;;5022749;28;20657;-75
2023/03/22 01:38:49;;;;;;;;;;;10.50;99.90;;;;;;5013206;28;19925;-76
2023/03/22 01:41:17;;;;;;;;;;;10.50;99.90;;;;;;5012165;28;20409;-76
2023/03/22 01:43:44;;;;;;;;;;;10.50;99.90;;;;;;5021100;28;19933;-75
2023/03/22 01:46:14;;;;;;;;;;;10.50;99.90;;;;;;5021969;28;19929;-75
2023/03/22 01:48:44;;;;;;;;;;;10.50;99.90;;;;;;5020030;28;20028;-75
2023/03/22 01:51:18;;;;;;;;;;;10.50;99.90;;;;;;5029075;28;19936;-75
2023/03/22 01:54:06;;;;;;;;;;;10.40;99.90;;;;;;5027289;28;19933;-76
2023/03/22 01:56:37;;;;;;;;;;;10.40;99.90;;;;;;5032527;28;20198;-76
2023/03/22 01:59:06;;;;;;;;;;;10.40;99.90;;;;;;5032756;28;19956;-76
2023/03/22 02:01:50;;;;;;;;;;;10.40;99.90;;;;;;5016616;28;19932;-76
2023/03/22 02:04:19;;;;;;;;;;;10.40;99.90;;;;;;5023727;28;20022;-75
2023/03/22 02:06:47;;;;;;;;;;;10.40;99.90;;;;;;5023683;28;20291;-75
2023/03/22 02:09:20;;;;;;;;;;;10.40;99.90;;;;;;5021988;28;19948;-75
2023/03/22 02:11:51;;;;;;;;;;;10.40;99.90;;;;;;5026122;28;20378;-75
2023/03/22 02:14:32;;;;;;;;;;;10.40;99.90;;;;;;5024521;28;20413;-75
2023/03/22 02:17:09;;;;;;;;;;;10.40;99.90;;;;;;5022333;28;20607;-76
2023/03/22 02:20:14;;;;;;;;;;;10.40;99.90;;;;;;5022308;28;19929;-75
2023/03/22 02:23:11;;;;;;;;;;;10.40;99.90;;;;;;5023608;28;20008;-75
2023/03/22 02:25:52;;;;;;;;;;;10.30;99.90;;;;;;5016747;28;19932;-76
2023/03/22 02:28:25;;;;;;;;;;;10.30;99.90;;;;;;5025812;28;19925;-75
2023/03/22 02:31:22;;;;;;;;;;;10.30;99.90;;;;;;5019886;28;19979;-76
2023/03/22 02:34:13;;;;;;;;;;;10.30;99.90;;;;;;5019217;28;20388;-76
2023/03/22 02:36:55;;;;;;;;;;;10.30;99.90;;;;;;5013936;28;19929;-75
2023/03/22 02:39:32;;;;;;;;;;;10.30;99.90;;;;;;5021282;28;19936;-75
2023/03/22 02:42:06;;;;;;;;;;;10.20;99.90;;;;;;5029313;28;19937;-75
2023/03/22 02:44:40;;;;;;;;;;;10.20;99.90;;;;;;5028817;28;19960;-76
2023/03/22 02:47:08;;;;;;;;;;;10.20;99.90;;;;;;5033186;28;19931;-75
2023/03/22 02:49:37;;;;;;;;;;;10.20;99.90;;;;;;5017773;28;19944;-75
2023/03/22 02:52:10;;;;;;;;;;;10.20;99.90;;;;;;5022409;28;19929;-75
2023/03/22 02:54:40;;;;;;;;;;;10.20;99.90;;;;;;5021636;28;19929;-76
2023/03/22 02:57:09;;;;;;;;;;;10.20;99.90;;;;;;5019320;28;20448;-75
2023/03/22 02:59:39;;;;;;;;;;;10.20;99.90;;;;;;5024206;28;19965;-75
2023/03/22 03:02:08;;;;;;;;;;;10.10;99.90;;;;;;5018066;28;19947;-75
2023/03/22 03:04:40;;;;;;;;;;;10.10;99.90;;;;;;5022788;28;19933;-76
2023/03/22 03:07:08;;;;;;;;;;;10.10;99.90;;;;;;5020646;28;19998;-75
2023/03/22 03:09:35;;;;;;;;;;;10.10;99.90;;;;;;5022770;28;19972;-76
2023/03/22 03:12:09;;;;;;;;;;;10.10;99.90;;;;;;5020537;28;19983;-76
2023/03/22 03:14:38;;;;;;;;;;;10.00;99.90;;;;;;5033444;28;19929;-75
2023/03/22 03:17:11;;;;;;;;;;;10.00;99.90;;;;;;5031439;28;19929;-76
2023/03/22 03:19:45;;;;;;;;;;;10.00;99.90;;;;;;5025330;28;20578;-76
2023/03/22 03:22:20;;;;;;;;;;;10.00;99.90;;;;;;5016200;28;20020;-75
2023/03/22 03:24:52;;;;;;;;;;;10.00;99.90;;;;;;5023958;28;19925;-75
2023/03/22 03:27:22;;;;;;;;;;;10.00;99.90;;;;;;5026067;28;20005;-75
2023/03/22 03:29:54;;;;;;;;;;;10.00;99.90;;;;;;5023127;28;19972;-75
2023/03/22 03:32:24;;;;;;;;;;;9.90;99.90;;;;;;5025151;28;19932;-75
2023/03/22 03:34:54;;;;;;;;;;;9.90;99.90;;;;;;5028803;28;19921;-77
2023/03/22 03:37:25;;;;;;;;;;;9.90;99.90;;;;;;5032470;28;19929;-76
2023/03/22 03:39:54;;;;;;;;;;;9.90;99.90;;;;;;5039600;28;19929;-77
2023/03/22 03:42:25;;;;;;;;;;;9.90;99.90;;;;;;5026673;28;19929;-76
2023/03/22 03:44:54;;;;;;;;;;;9.90;99.90;;;;;;5028290;28;19979;-75
2023/03/22 03:47:21;;;;;;;;;;;9.80;99.90;;;;;;5016441;28;20312;-75
2023/03/22 03:49:52;;;;;;;;;;;9.80;99.90;;;;;;5041482;28;20052;-75
2023/03/22 03:52:18;;;;;;;;;;;9.80;99.90;;;;;;5023858;28;19933;-75
2023/03/22 03:54:45;;;;;;;;;;;9.80;99.90;;;;;;5017933;28;19931;-75
2023/03/22 03:57:16;;;;;;;;;;;9.80;99.90;;;;;;5020396;28;19925;-75
2023/03/22 03:59:44;;;;;;;;;;;9.80;99.90;;;;;;5034164;28;19933;-75
2023/03/22 04:02:21;;;;;;;;;;;9.80;99.90;;;;;;5008841;28;20342;-75
2023/03/22 04:04:49;;;;;;;;;;;9.70;99.90;;;;;;5021081;28;19929;-75
2023/03/22 04:07:20;;;;;;;;;;;9.70;99.90;;;;;;5034070;28;19940;-75
2023/03/22 04:09:50;;;;;;;;;;;9.70;99.90;;;;;;5018468;28;20377;-75
2023/03/22 04:12:38;;;;;;;;;;;9.70;99.90;;;;;;5020260;28;19980;-75
2023/03/22 04:15:18;;;;;;;;;;;9.70;99.90;;;;;;5016935;28;19932;-75
2023/03/22 04:18:00;;;;;;;;;;;9.70;99.90;;;;;;5020481;28;20350;-74
2023/03/22 04:20:30;;;;;;;;;;;9.60;99.90;;;;;;5019812;28;19955;-75
2023/03/22 04:22:59;;;;;;;;;;;9.60;99.90;;;;;;5029882;28;20024;-75
2023/03/22 04:25:32;;;;;;;;;;;9.60;99.90;;;;;;5025499;28;19925;-74
2023/03/22 04:28:08;;;;;;;;;;;9.60;99.90;;;;;;5028301;28;19929;-74
2023/03/22 04:30:38;;;;;;;;;;;9.60;99.90;;;;;;5021744;28;19956;-75
2023/03/22 04:33:23;;;;;;;;;;;9.60;99.90;;;;;;5025795;28;20335;-75
2023/03/22 04:36:18;;;;;;;;;;;9.50;99.90;;;;;;5027091;28;20303;-74
2023/03/22 04:39:23;;;;;;;;;;;9.50;99.90;;;;;;5014572;28;20420;-74
2023/03/22 04:42:02;;;;;;;;;;;9.50;99.90;;;;;;5003934;28;19925;-75
2023/03/22 04:44:29;;;;;;;;;;;9.50;99.90;;;;;;5009248;28;19933;-74
2023/03/22 04:46:57;;;;;;;;;;;9.50;99.90;;;;;;5031794;28;19926;-73
2023/03/22 04:49:25;;;;;;;;;;;9.50;99.90;;;;;;5018166;28;19932;-75
2023/03/22 04:51:52;;;;;;;;;;;9.50;99.90;;;;;;5022010;28;19925;-75
2023/03/22 04:54:29;;;;;;;;;;;9.40;99.90;;;;;;5020980;28;20383;-75
2023/03/22 04:56:56;;;;;;;;;;;9.40;99.90;;;;;;5036152;28;19952;-74
2023/03/22 04:59:25;;;;;;;;;;;9.40;99.90;;;;;;5022398;28;19925;-74
2023/03/22 05:01:51;;;;;;;;;;;9.40;99.90;;;;;;5015388;28;19929;-74
2023/03/22 05:04:27;;;;;;;;;;;9.40;99.90;;;;;;5015337;28;19933;-74
2023/03/22 05:07:11;;;;;;;;;;;9.40;99.90;;;;;;5019150;28;19925;-73
2023/03/22 05:09:45;;;;;;;;;;;9.40;99.90;;;;;;5017146;28;19925;-74
2023/03/22 05:12:15;;;;;;;;;;;9.40;99.90;;;;;;5020736;28;19925;-74
2023/03/22 05:14:49;;;;;;;;;;;9.30;99.90;;;;;;5011869;28;19925;-74
2023/03/22 05:17:21;;;;;;;;;;;9.30;99.90;;;;;;5033966;28;20264;-74
2023/03/22 05:19:53;;;;;;;;;;;9.40;99.90;;;;;;5019344;28;19998;-73
2023/03/22 05:22:21;;;;;;;;;;;9.30;99.90;;;;;;5020477;28;20054;-75
2023/03/22 05:24:52;;;;;;;;;;;9.30;99.90;;;;;;5016425;28;19925;-74
2023/03/22 05:27:30;;;;;;;;;;;9.30;99.90;;;;;;5034232;28;20406;-74
2023/03/22 05:30:06;;;;;;;;;;;9.30;99.90;;;;;;5016834;28;20379;-74
2023/03/22 05:32:43;;;;;;;;;;;9.30;99.90;;;;;;5032761;28;20024;-74
2023/03/22 05:35:13;;;;;;;;;;;9.30;99.90;;;;;;5020341;28;20012;-74
2023/03/22 05:37:45;;;;;;;;;;;9.20;99.90;;;;;;5018871;28;19933;-74
2023/03/22 05:40:17;;;;;;;;;;;9.20;99.90;;;;;;5018755;28;19932;-74
2023/03/22 05:42:45;;;;;;;;;;;9.20;99.90;;;;;;5008656;28;20019;-74
2023/03/22 05:45:20;;;;;;;;;;;9.20;99.90;;;;;;5017842;28;19932;-73
2023/03/22 05:47:55;;;;;;;;;;;9.10;99.90;;;;;;5040416;28;19979;-74
2023/03/22 05:50:23;;;;;;;;;;;9.10;99.90;;;;;;5017427;28;19925;-75
2023/03/22 05:52:57;;;;;;;;;;;9.10;99.90;;;;;;5019826;28;19941;-75
2023/03/22 05:55:59;;;;;;;;;;;9.10;99.90;;;;;;5044653;28;19931;-76
2023/03/22 05:58:29;;;;;;;;;;;9.10;99.90;;;;;;5038292;28;19932;-78
2023/03/22 06:00:59;;;;;;;;;;;9.10;99.90;;;;;;5018213;28;19929;-75
2023/03/22 06:03:52;;;;;;;;;;;9.10;99.90;;;;;;5010840;28;20399;-74
2023/03/22 06:06:32;;;;;;;;;;;9.00;99.90;;;;;;5025529;28;19925;-74
2023/03/22 06:09:11;;;;;;;;;;;9.00;99.90;;;;;;5026155;28;19925;-74
2023/03/22 06:11:37;;;;;;;;;;;9.00;99.90;;;;;;5011023;28;19926;-75
2023/03/22 06:14:05;;;;;;;;;;;9.00;99.90;;;;;;5031242;28;19929;-75
2023/03/22 06:16:57;;;;;;;;;;;9.00;99.90;;;;;;5011568;28;19933;-75
2023/03/22 06:19:25;;;;;;;;;;;9.00;99.90;;;;;;5032566;28;19933;-75
2023/03/22 06:21:54;;;;;;;;;;;9.00;99.90;;;;;;5028304;28;19909;-75
2023/03/22 06:24:23;;;;;;;;;;;9.00;99.90;;;;;;5021854;28;19975;-75
2023/03/22 06:26:50;;;;;;;;;;;9.00;99.90;;;;;;5026588;28;19925;-76
2023/03/22 06:29:16;;;;;;;;;;;8.90;99.90;;;;;;5027029;28;19932;-75
2023/03/22 06:31:44;;;;;;;;;;;9.00;99.90;;;;;;5039302;28;20349;-75
2023/03/22 06:34:12;;;;;;;;;;;8.90;99.90;;;;;;5013213;28;20596;-75
2023/03/22 06:36:41;;;;;;;;;;;8.90;99.90;;;;;;5025400;28;19951;-76
2023/03/22 06:39:13;;;;;;;;;;;8.90;99.90;;;;;;5044098;28;19925;-76
2023/03/22 06:41:43;;;;;;;;;;;8.90;99.90;;;;;;5016343;28;19925;-75
2023/03/22 06:44:10;;;;;;;;;;;8.90;99.90;;;;;;5040200;28;19925;-75
2023/03/22 06:46:45;;;;;;;;;;;8.80;99.90;;;;;;5020978;28;19925;-75
2023/03/22 06:49:21;;;;;;;;;;;8.80;99.90;;;;;;5017696;28;19931;-74
2023/03/22 06:51:50;;;;;;;;;;;8.80;99.90;;;;;;5015569;28;20015;-76
2023/03/22 06:54:19;;;;;;;;;;;8.80;99.90;;;;;;5018675;28;21182;-74
2023/03/22 06:56:46;;;;;;;;;;;8.80;99.90;;;;;;5022497;28;19925;-75
2023/03/22 06:59:13;;;;;;;;;;;8.80;99.90;;;;;;5022563;28;19933;-76
2023/03/22 07:01:40;;;;;;;;;;;8.80;99.90;;;;;;5029978;28;19929;-75
2023/03/22 07:04:07;;;;;;;;;;;8.80;99.90;;;;;;5022421;28;20278;-75
2023/03/22 07:06:34;;;;;;;;;;;8.80;99.90;;;;;;5024025;28;19925;-75
2023/03/22 07:09:02;;;;;;;;;;;8.80;99.90;;;;;;5040075;28;19937;-75
2023/03/22 07:11:34;;;;;;;;;;;8.80;99.90;;;;;;5023718;28;19964;-78
2023/03/22 07:14:03;;;;;;;;;;;8.70;99.90;;;;;;5023670;28;19952;-77
2023/03/22 07:16:48;;;;;;;;;;;8.80;99.90;;;;;;5015972;28;20413;-75
2023/03/22 07:19:17;;;;;;;;;;;8.70;99.90;;;;;;5026602;28;20349;-75
2023/03/22 07:21:44;;;;;;;;;;;8.70;99.90;;;;;;5026190;28;19932;-75
2023/03/22 07:24:12;;;;;;;;;;;8.70;99.90;;;;;;5025342;28;19925;-74
2023/03/22 07:26:41;;;;;;;;;;;8.70;99.90;;;;;;5027979;28;20405;-75
2023/03/22 07:29:12;;;;;;;;;;;8.70;99.90;;;;;;5019561;28;19932;-75
2023/03/22 07:31:39;;;;;;;;;;;8.70;99.90;;;;;;5018994;28;19925;-76
2023/03/22 07:34:11;;;;;;;;;;;8.70;99.90;;;;;;5040182;28;19931;-76
2023/03/22 07:36:48;;;;;;;;;;;8.70;99.90;;;;;;5038689;28;20025;-76
2023/03/22 07:39:15;;;;;;;;;;;8.80;99.90;;;;;;5010513;28;20411;-75
2023/03/22 07:41:46;;;;;;;;;;;8.80;99.90;;;;;;5017209;28;20077;-75
2023/03/22 07:44:23;;;;;;;;;;;8.80;99.90;;;;;;5022735;28;19983;-74
2023/03/22 07:47:13;;;;;;;;;;;8.70;99.90;;;;;;5012786;28;19929;-76
2023/03/22 07:49:50;;;;;;;;;;;8.80;99.90;;;;;;5026471;28;19968;-75
2023/03/22 07:52:21;;;;;;;;;;;8.80;99.90;;;;;;5026874;28;20028;-76
2023/03/22 07:54:48;;;;;;;;;;;8.80;99.90;;;;;;5025239;28;20403;-76
2023/03/22 07:57:16;;;;;;;;;;;8.80;99.90;;;;;;5024861;28;19925;-76
2023/03/22 07:59:48;;;;;;;;;;;8.80;99.90;;;;;;5032763;28;19949;-75
2023/03/22 08:02:15;;;;;;;;;;;8.80;99.90;;;;;;5018194;28;19925;-75
2023/03/22 08:04:49;;;;;;;;;;;8.80;99.90;;;;;;5033870;28;19964;-76
2023/03/22 08:07:42;;;;;;;;;;;8.80;99.90;;;;;;5022864;28;19933;-76
2023/03/22 08:10:12;;;;;;;;;;;8.80;99.90;;;;;;5043648;28;19971;-76
2023/03/22 08:12:41;;;;;;;;;;;8.80;99.90;;;;;;5035407;28;19944;-77
2023/03/22 08:15:16;;;;;;;;;;;8.80;99.90;;;;;;5042171;28;19926;-76
2023/03/22 08:17:44;;;;;;;;;;;8.80;99.90;;;;;;5031665;28;19933;-76
2023/03/22 08:20:17;;;;;;;;;;;8.80;99.90;;;;;;5026175;28;19925;-75
2023/03/22 08:22:49;;;;;;;;;;;8.80;99.90;;;;;;5032660;28;19956;-76
2023/03/22 08:25:39;;;;;;;;;;;8.90;99.90;;;;;;5023697;28;19929;-76
2023/03/22 08:28:12;;;;;;;;;;;8.80;99.90;;;;;;5028319;28;20472;-76
2023/03/22 08:30:38;;;;;;;;;;;8.90;99.90;;;;;;5022839;28;19956;-76
2023/03/22 08:33:06;;;;;;;;;;;9.00;99.90;;;;;;5022396;28;20156;-76
2023/03/22 08:35:34;;;;;;;;;;;9.00;99.90;;;;;;5033926;28;19960;-76
2023/03/22 08:38:01;;;;;;;;;;;9.00;99.90;;;;;;5037398;28;19925;-76
2023/03/22 08:40:36;;;;;;;;;;;9.00;99.90;;;;;;5026178;28;19933;-76
2023/03/22 08:43:03;;;;;;;;;;;9.10;99.90;;;;;;5024481;28;20024;-76
2023/03/22 08:45:32;;;;;;;;;;;9.10;99.90;;;;;;5028556;28;19925;-76
2023/03/22 08:48:06;;;;;;;;;;;9.10;99.90;;;;;;5023357;28;19925;-76
2023/03/22 08:50:47;;;;;;;;;;;9.10;99.90;;;;;;5023381;28;19965;-76
2023/03/22 08:53:23;;;;;;;;;;;9.10;99.90;;;;;;5022373;28;19940;-75
2023/03/22 08:56:00;;;;;;;;;;;9.20;99.90;;;;;;5038432;28;20011;-75
2023/03/22 08:58:45;;;;;;;;;;;9.20;99.90;;;;;;5021005;28;20315;-75
2023/03/22 09:01:28;;;;;;;;;;;9.20;99.90;;;;;;5035081;28;19925;-75
2023/03/22 09:04:02;;;;;;;;;;;9.30;99.90;;;;;;5022837;28;20422;-76
2023/03/22 09:06:29;;;;;;;;;;;9.30;99.90;;;;;;5027412;28;19932;-75
2023/03/22 09:08:56;;;;;;;;;;;9.30;99.90;;;;;;5025707;28;19965;-75
2023/03/22 09:11:24;;;;;;;;;;;9.40;99.90;;;;;;5021613;28;19925;-75
2023/03/22 09:13:51;;;;;;;;;;;9.40;99.90;;;;;;5020888;28;19969;-76
2023/03/22 09:16:19;;;;;;;;;;;9.40;99.90;;;;;;5019258;28;20011;-76
2023/03/22 09:18:48;;;;;;;;;;;9.50;99.90;;;;;;5026100;28;19925;-75
2023/03/22 09:21:17;;;;;;;;;;;9.40;99.90;;;;;;5033392;28;19980;-76
2023/03/22 09:24:00;;;;;;;;;;;9.40;99.90;;;;;;5024164;28;19926;-76
2023/03/22 09:26:38;;;;;;;;;;;9.50;99.90;;;;;;5025266;28;19935;-76
2023/03/22 09:29:06;;;;;;;;;;;9.50;99.90;;;;;;5035495;28;19932;-75
2023/03/22 09:31:33;;;;;;;;;;;9.50;99.90;;;;;;5020859;28;20134;-76
2023/03/22 09:34:16;;;;;;;;;;;9.60;99.90;;;;;;5024249;28;19929;-76
2023/03/22 09:36:43;;;;;;;;;;;9.50;99.90;;;;;;5023988;28;19952;-76
2023/03/22 09:39:11;;;;;;;;;;;9.60;99.90;;;;;;5024840;28;19929;-76
2023/03/22 09:41:40;;;;;;;;;;;9.60;99.90;;;;;;5025354;28;19933;-75
2023/03/22 09:44:12;;;;;;;;;;;9.60;99.90;;;;;;5027426;28;19925;-76
2023/03/22 09:46:40;;;;;;;;;;;9.60;99.90;;;;;;5036697;28;19935;-77
2023/03/22 09:49:11;;;;;;;;;;;9.60;99.90;;;;;;5015652;28;19932;-76
2023/03/22 09:51:40;;;;;;;;;;;9.60;99.90;;;;;;5019833;28;19964;-76
2023/03/22 09:54:11;;;;;;;;;;;9.60;99.90;;;;;;5034588;28;19988;-75
2023/03/22 09:56:38;;;;;;;;;;;9.70;99.90;;;;;;5022799;28;19925;-75
2023/03/22 09:59:08;;;;;;;;;;;9.80;99.90;;;;;;5035245;28;19951;-76
2023/03/22 10:01:39;;;;;;;;;;;9.90;99.90;;;;;;5024609;28;19929;-76
2023/03/22 10:04:14;;;;;;;;;;;9.90;99.90;;;;;;5023288;28;20011;-76
2023/03/22 10:06:45;;;;;;;;;;;10.00;99.90;;;;;;5021610;28;20028;-76
2023/03/22 10:09:14;;;;;;;;;;;10.00;99.90;;;;;;5027884;28;19980;-76
2023/03/22 10:11:44;;;;;;;;;;;10.10;99.90;;;;;;5021637;28;19968;-77
2023/03/22 10:14:20;;;;;;;;;;;10.10;99.90;;;;;;5022095;28;19929;-75
2023/03/22 10:16:47;;;;;;;;;;;10.10;99.90;;;;;;5024048;28;19932;-76
2023/03/22 10:19:19;;;;;;;;;;;10.20;99.90;;;;;;5021837;28;19929;-76
2023/03/22 10:21:50;;;;;;;;;;;10.20;99.90;;;;;;5027623;28;20513;-76
2023/03/22 10:24:19;;;;;;;;;;;10.20;99.90;;;;;;5027502;28;20430;-76
2023/03/22 10:26:47;;;;;;;;;;;10.20;99.90;;;;;;5023745;28;19994;-76
2023/03/22 10:29:19;;;;;;;;;;;10.30;99.90;;;;;;5023788;28;19925;-76
2023/03/22 10:31:45;;;;;;;;;;;10.50;99.90;;;;;;5021835;28;19925;-76
2023/03/22 10:34:18;;;;;;;;;;;10.60;99.90;;;;;;5045431;28;19935;-76
2023/03/22 10:36:46;;;;;;;;;;;10.50;99.90;;;;;;5033949;28;19925;-78
2023/03/22 10:39:19;;;;;;;;;;;10.60;99.90;;;;;;5023041;28;20295;-76
2023/03/22 10:41:46;;;;;;;;;;;10.60;99.90;;;;;;5020435;28;20323;-76
2023/03/22 10:44:20;;;;;;;;;;;10.60;99.90;;;;;;5026292;28;20000;-76
2023/03/22 10:46:50;;;;;;;;;;;10.70;99.90;;;;;;5028833;28;19932;-76
2023/03/22 10:49:20;;;;;;;;;;;10.70;99.90;;;;;;5022187;28;19929;-76
2023/03/22 10:51:50;;;;;;;;;;;10.90;99.90;;;;;;5022459;28;19931;-76
2023/03/22 10:54:22;;;;;;;;;;;10.90;99.90;;;;;;5022331;28;20358;-77
2023/03/22 10:56:49;;;;;;;;;;;11.00;99.90;;;;;;5016689;28;20016;-76
2023/03/22 10:59:30;;;;;;;;;;;11.00;99.90;;;;;;5027071;28;19932;-74
2023/03/22 11:01:57;;;;;;;;;;;11.00;99.90;;;;;;5006547;28;19925;-75
2023/03/22 11:04:30;;;;;;;;;;;11.20;99.90;;;;;;5027366;28;19925;-78
2023/03/22 11:06:56;;;;;;;;;;;11.20;99.90;;;;;;5036461;28;20376;-78
2023/03/22 11:09:26;;;;;;;;;;;11.30;99.90;;;;;;5028865;28;19933;-75
2023/03/22 11:11:53;;;;;;;;;;;11.20;99.90;;;;;;5022781;28;20701;-75
2023/03/22 11:14:25;;;;;;;;;;;11.30;99.90;;;;;;5021926;28;20423;-75
2023/03/22 11:16:53;;;;;;;;;;;11.50;99.90;;;;;;5026184;28;20036;-78
2023/03/22 11:19:22;;;;;;;;;;;11.50;99.90;;;;;;5039834;28;19996;-76
2023/03/22 11:21:51;;;;;;;;;;;11.70;99.90;;;;;;5019185;28;20395;-76
2023/03/22 11:24:20;;;;;;;;;;;11.90;99.90;;;;;;5026764;28;19925;-76
2023/03/22 11:27:02;;;;;;;;;;;12.00;99.90;;;;;;5021392;28;19932;-75
2023/03/22 11:29:38;;;;;;;;;;;12.00;99.90;;;;;;5025926;28;19929;-75
2023/03/22 11:32:19;;;;;;;;;;;12.00;99.90;;;;;;5024924;28;20587;-76
2023/03/22 11:34:46;;;;;;;;;;;12.10;99.90;;;;;;5025889;28;19948;-76
2023/03/22 11:37:16;;;;;;;;;;;12.20;99.90;;;;;;5024267;28;20547;-75
2023/03/22 11:39:48;;;;;;;;;;;12.30;99.90;;;;;;5024729;28;19926;-76
2023/03/22 11:42:18;;;;;;;;;;;12.20;99.90;;;;;;5024327;28;19932;-74
2023/03/22 11:44:47;;;;;;;;;;;12.20;99.90;;;;;;5024008;28;19980;-76
2023/03/22 11:47:14;;;;;;;;;;;12.30;99.90;;;;;;5024751;28;19925;-76
2023/03/22 11:49:46;;;;;;;;;;;12.40;99.90;;;;;;5021539;28;19958;-77
2023/03/22 11:52:16;;;;;;;;;;;12.50;99.90;;;;;;5020591;28;20012;-77
2023/03/22 11:54:44;;;;;;;;;;;12.50;99.90;;;;;;5025170;28;19929;-76
2023/03/22 11:57:17;;;;;;;;;;;12.60;99.90;;;;;;5020842;28;19972;-78
2023/03/22 11:59:54;;;;;;;;;;;12.70;99.90;;;;;;5013257;28;19966;-76
2023/03/22 12:02:23;;;;;;;;;;;12.60;99.90;;;;;;5022004;28;20323;-76
2023/03/22 12:04:51;;;;;;;;;;;12.60;99.90;;;;;;5017933;28;19940;-76
2023/03/22 12:07:23;;;;;;;;;;;12.60;99.90;;;;;;5032607;28;20307;-75
2023/03/22 12:09:54;;;;;;;;;;;12.60;99.90;;;;;;5018653;28;19934;-75
2023/03/22 12:12:22;;;;;;;;;;;12.50;99.90;;;;;;5021670;28;19965;-77
2023/03/22 12:14:52;;;;;;;;;;;12.50;99.90;;;;;;5016143;28;19941;-75
2023/03/22 12:17:23;;;;;;;;;;;12.50;99.90;;;;;;5012686;28;19929;-76
2023/03/22 12:19:53;;;;;;;;;;;12.50;99.90;;;;;;5036597;28;19979;-75
2023/03/22 12:22:21;;;;;;;;;;;12.60;99.90;;;;;;5013781;28;20060;-76
2023/03/22 12:24:48;;;;;;;;;;;12.60;99.90;;;;;;5013789;28;19975;-76
2023/03/22 12:27:16;;;;;;;;;;;12.60;99.90;;;;;;5032382;22;19932;-72
2023/03/22 12:29:46;;;;;;;;;;;12.70;99.90;;;;;;5019433;28;19933;-72
2023/03/22 12:32:17;;;;;;;;;;;12.70;99.90;;;;;;5032880;28;19935;-73
2023/03/22 12:34:49;;;;;;;;;;;12.70;99.90;;;;;;5037579;28;19928;-73
2023/03/22 12:37:19;;;;;;;;;;;12.70;99.90;;;;;;5018523;28;19925;-74
2023/03/22 12:39:50;;;;;;;;;;;12.70;99.90;;;;;;5018234;28;20016;-73
2023/03/22 12:42:20;;;;;;;;;;;12.80;99.90;;;;;;5025454;28;19940;-73
2023/03/22 12:44:49;;;;;;;;;;;12.90;99.90;;;;;;5039496;28;19925;-73
2023/03/22 12:47:20;;;;;;;;;;;12.80;99.90;;;;;;5019650;28;20016;-73
2023/03/22 12:49:50;;;;;;;;;;;12.80;99.90;;;;;;5020164;28;19975;-73
2023/03/22 12:52:18;;;;;;;;;;;12.80;99.90;;;;;;5016589;28;19937;-73
2023/03/22 12:54:46;;;;;;;;;;;12.80;99.90;;;;;;5019745;28;19965;-73
2023/03/22 12:57:14;;;;;;;;;;;12.80;99.90;;;;;;5019881;28;19932;-72
2023/03/22 12:59:42;;;;;;;;;;;12.80;99.90;;;;;;5021670;28;19933;-72
2023/03/22 13:02:14;;;;;;;;;;;12.70;99.90;;;;;;5018626;28;19934;-72
2023/03/22 13:04:53;;;;;;;;;;;12.70;99.90;;;;;;5008039;28;19931;-73
2023/03/22 13:07:52;;;;;;;;;;;12.90;99.90;;;;;;5020058;28;20387;-72
2023/03/22 13:10:40;;;;;;;;;;;13.00;99.90;;;;;;5018884;28;19937;-73
2023/03/22 13:13:12;;;;;;;;;;;13.10;99.90;;;;;;5013323;28;19929;-73
2023/03/22 13:15:40;;;;;;;;;;;13.20;99.90;;;;;;5021609;28;19979;-73
2023/03/22 13:18:21;;;;;;;;;;;13.20;99.90;;;;;;5021605;28;19980;-72
2023/03/22 13:21:03;;;;;;;;;;;13.30;99.90;;;;;;5013856;28;20033;-72
2023/03/22 13:23:32;;;;;;;;;;;13.20;99.90;;;;;;5016562;28;19925;-73
2023/03/22 13:26:00;;;;;;;;;;;13.30;99.90;;;;;;5018061;28;19932;-73
2023/03/22 13:28:28;;;;;;;;;;;13.20;99.90;;;;;;5017306;28;20390;-73
2023/03/22 13:30:58;;;;;;;;;;;13.20;99.90;;;;;;5017531;28;19926;-70
2023/03/22 13:33:26;;;;;;;;;;;13.30;99.90;;;;;;5023926;28;19971;-74
2023/03/22 13:35:56;;;;;;;;;;;13.40;99.90;;;;;;5024159;28;19979;-73
2023/03/22 13:38:25;;;;;;;;;;;13.50;99.90;;;;;;5019026;28;19983;-73
2023/03/22 13:41:02;;;;;;;;;;;13.50;99.90;;;;;;5020147;28;19929;-73
2023/03/22 13:43:32;;;;;;;;;;;13.40;99.90;;;;;;5015587;28;20201;-73
2023/03/22 13:46:04;;;;;;;;;;;13.40;99.90;;;;;;5016184;28;19925;-74
2023/03/22 13:48:41;;;;;;;;;;;13.50;99.90;;;;;;5015024;28;19943;-73
2023/03/22 13:51:12;;;;;;;;;;;13.50;99.90;;;;;;5010079;28;19965;-73
2023/03/22 13:53:42;;;;;;;;;;;13.60;99.90;;;;;;5020460;28;20016;-73
2023/03/22 13:56:13;;;;;;;;;;;13.70;99.90;;;;;;5016579;28;20024;-73
2023/03/22 13:58:51;;;;;;;;;;;13.70;99.90;;;;;;5019600;28;20016;-73
2023/03/22 14:01:24;;;;;;;;;;;13.80;99.90;;;;;;5033898;28;19925;-73
2023/03/22 14:03:51;;;;;;;;;;;13.90;99.90;;;;;;5016426;28;19965;-73
2023/03/22 14:06:20;;;;;;;;;;;13.90;99.90;;;;;;5019765;28;19937;-73
2023/03/22 14:08:48;;;;;;;;;;;14.00;99.90;;;;;;5018604;28;20331;-73
2023/03/22 14:11:23;;;;;;;;;;;14.10;99.90;;;;;;5014281;28;19940;-74
2023/03/22 14:13:55;;;;;;;;;;;14.20;99.90;;;;;;5013188;28;19953;-74
2023/03/22 14:16:35;;;;;;;;;;;14.20;99.90;;;;;;5030823;28;20024;-73
2023/03/22 14:19:03;;;;;;;;;;;14.30;99.90;;;;;;5016005;28;19976;-73
2023/03/22 14:21:32;;;;;;;;;;;14.30;99.90;;;;;;5020159;28;20007;-74
2023/03/22 14:24:00;;;;;;;;;;;14.20;99.90;;;;;;5017017;28;19937;-72
2023/03/22 14:26:34;;;;;;;;;;;14.30;99.90;;;;;;5016860;28;19964;-73
2023/03/22 14:29:06;;;;;;;;;;;14.30;99.90;;;;;;5016620;28;19929;-72
2023/03/22 14:31:34;;;;;;;;;;;14.30;99.90;;;;;;5018583;28;19929;-73
2023/03/22 14:34:01;;;;;;;;;;;14.30;99.90;;;;;;5019639;28;19925;-73
2023/03/22 14:36:30;;;;;;;;;;;14.30;99.90;;;;;;5015933;28;20020;-74
2023/03/22 14:38:57;;;;;;;;;;;14.40;99.90;;;;;;5016075;28;19945;-73
2023/03/22 14:41:25;;;;;;;;;;;14.50;99.90;;;;;;5014542;28;20510;-74
2023/03/22 14:43:58;;;;;;;;;;;14.60;99.90;;;;;;5021203;28;19925;-73
2023/03/22 14:46:31;;;;;;;;;;;14.70;99.90;;;;;;5015772;28;19932;-73
2023/03/22 14:48:59;;;;;;;;;;;14.70;99.90;;;;;;5018170;28;20623;-72
2023/03/22 14:51:29;;;;;;;;;;;14.70;99.90;;;;;;5016856;28;19925;-73